Hlavní strana
METAR-TAF:

METAR-TAF

Letiště :

Daniel Field Airport

Augusta, Georgie, Spojené státy americké

zeměpisná šířka: 33-28-01N, zeměpisná délka: 082-02-19W, výška: 128 m

Aktuální stav počasí

Zpráva byla vytvořena před 48 minutami, v 16:53 UTC
Jihojihovýchodní vítr 5 kt
Teplota 33°C
Vlhkost vzduchu 44%
Tlak 1015 hPa
Viditelnost: 16.1 km
Skoro jasno ve výšce 5000 ft

METAR: KDNL 031653Z AUTO 15005KT 10SM FEW050 33/19 A2998 RMK AO2 SLP145 T03280194

Čas: 13:41 (17:41 UTC)

Předpověď počasí

Zpráva byla vytvořena před 14 minutami, v 17:27 UTC
Předpověď platná od 03 v 18 UTC do 04 v 18 UTC
Východoseverovýchodní vítr 6 kt
Viditelnost: 10 km
Polojasno ve výšce 5000 ft
Od 04 v 0100 UTC
vítr z různých směrů 3 kt
Viditelnost: 10 km
Jasno

TAF: KDNL 031727Z 0318/0418 07006KT P6SM SCT050 FM040100 VRB03KT P6SM SKC

Stav a předpovědi počasí z více než 4 000 letišť (zprávy METAR a TAF).

Červené a žluté tečky na mapě představují dostupné meteorologické stanice.

Když kurzor umístíte na tečku, zobrazí se název stanice.

Pak kliknutím zobrazíte stav a předpověď počasí.

Chcete-li změnit mapu, kliknutím na zelené tlačítko se znaménkem +mapu přiblížíte, kliknutím na zelené tlačítko se znaménkem – mapu oddálíte a kliknutím na zelené šipky přejdete na sousední mapy.


METAR-TAF: